Aviation Digital Data Service (ADDS)

Output produced by METARs form (0650 UTC 29 July 2015)
found at http://aviationweather.gov/adds/metars/
 
KLBE 290521Z 2906/3006 VRB03KT P6SM SCT250 
     TEMPO 2908/2912 5SM BR 
     FM291500 20005KT P6SM SCT040 AMD NOT SKED